createdAt,value
2022-07-27T00:02:03.520Z,18.77
2022-07-27T00:07:06.308Z,18.05
2022-07-27T00:12:09.138Z,19.38
2022-07-27T00:17:11.781Z,24.27
2022-07-27T00:22:14.537Z,21.35
2022-07-27T00:27:17.283Z,22.77
2022-07-27T00:32:20.512Z,23.83
2022-07-27T00:37:23.144Z,21.38
2022-07-27T00:42:28.438Z,19.23
2022-07-27T00:47:31.242Z,20.13
2022-07-27T00:52:34.637Z,22.50
2022-07-27T00:57:58.533Z,22.70
2022-07-27T01:03:02.579Z,21.85
2022-07-27T01:08:14.458Z,21.20
2022-07-27T01:13:17.480Z,18.85
2022-07-27T01:18:32.252Z,18.95
2022-07-27T01:23:35.351Z,17.48
2022-07-27T01:28:38.005Z,25.50
2022-07-27T01:33:40.663Z,25.02
2022-07-27T01:38:43.720Z,20.95
2022-07-27T01:43:46.513Z,26.60
2022-07-27T01:48:49.363Z,25.15
2022-07-27T01:53:52.196Z,24.27
2022-07-27T01:58:55.468Z,20.60
2022-07-27T02:03:58.183Z,21.77
2022-07-27T02:09:01.693Z,22.55
2022-07-27T02:14:04.572Z,17.05
2022-07-27T02:19:07.253Z,15.57
2022-07-27T02:24:11.837Z,15.10
2022-07-27T02:29:14.836Z,15.20
2022-07-27T02:34:17.658Z,15.07
2022-07-27T02:39:20.437Z,16.65
2022-07-27T02:44:23.662Z,16.02
2022-07-27T02:49:26.509Z,12.77
2022-07-27T02:54:31.801Z,12.70
2022-07-27T02:59:34.568Z,13.23
2022-07-27T03:04:37.423Z,12.43
2022-07-27T03:09:40.306Z,12.07
2022-07-27T03:14:42.945Z,14.70
2022-07-27T03:19:45.597Z,13.27
2022-07-27T03:24:48.329Z,14.55
2022-07-27T03:29:51.217Z,13.32
2022-07-27T03:34:53.881Z,14.70
2022-07-27T03:39:56.712Z,16.50
2022-07-27T03:44:59.387Z,18.05
2022-07-27T03:50:02.422Z,17.23
2022-07-27T03:55:07.525Z,19.08
2022-07-27T04:00:14.256Z,20.00
2022-07-27T04:05:17.001Z,21.13
2022-07-27T04:10:19.826Z,23.77
2022-07-27T04:15:25.609Z,22.10
2022-07-27T04:20:28.333Z,23.73
2022-07-27T04:25:31.169Z,23.63
2022-07-27T04:30:33.970Z,24.58
2022-07-27T04:35:36.751Z,22.02
2022-07-27T04:40:39.491Z,26.25
2022-07-27T04:45:42.539Z,26.85
2022-07-27T04:50:47.443Z,27.35
2022-07-27T04:55:50.289Z,21.13
2022-07-27T05:00:53.258Z,19.27
2022-07-27T05:05:56.153Z,23.08
2022-07-27T05:10:59.175Z,21.52
2022-07-27T05:16:01.903Z,26.70
2022-07-27T05:21:05.328Z,24.92
2022-07-27T05:26:08.081Z,27.02
2022-07-27T05:31:10.767Z,25.25
2022-07-27T05:36:13.945Z,31.98
2022-07-27T05:41:26.297Z,27.95
2022-07-27T05:46:32.646Z,20.67
2022-07-27T05:51:35.756Z,25.85
2022-07-27T05:56:38.779Z,28.02
2022-07-27T06:01:41.566Z,21.08
2022-07-27T06:07:03.014Z,23.83
2022-07-27T06:12:06.013Z,20.00
2022-07-27T06:17:09.496Z,17.05
2022-07-27T06:22:13.650Z,21.70
2022-07-27T06:27:16.586Z,22.63
2022-07-27T06:32:19.383Z,19.90
2022-07-27T06:37:22.452Z,16.33
2022-07-27T06:42:25.336Z,15.63
2022-07-27T06:47:28.961Z,18.10
2022-07-27T06:52:31.792Z,18.70
2022-07-27T06:57:34.472Z,21.55
2022-07-27T07:02:37.285Z,18.42
2022-07-27T07:07:40.388Z,16.67
2022-07-27T07:12:43.312Z,15.10
2022-07-27T07:17:45.963Z,14.63
2022-07-27T07:22:48.617Z,14.95
2022-07-27T07:27:52.162Z,17.95
2022-07-27T07:32:55.260Z,18.02
2022-07-27T07:37:57.886Z,21.38
2022-07-27T07:43:03.161Z,16.98
2022-07-27T07:48:07.390Z,20.80
2022-07-27T07:53:11.426Z,19.38
2022-07-27T07:58:17.310Z,21.05
2022-07-27T08:03:20.189Z,16.70
2022-07-27T08:08:24.936Z,18.25
2022-07-27T08:13:27.896Z,18.60
2022-07-27T08:18:30.617Z,15.75
2022-07-27T08:23:33.319Z,19.05
2022-07-27T08:28:37.151Z,19.88
2022-07-27T08:33:40.927Z,16.17
2022-07-27T08:38:43.686Z,16.70
2022-07-27T08:43:48.752Z,15.35
2022-07-27T08:48:52.096Z,18.08
2022-07-27T08:53:56.294Z,16.20
2022-07-27T08:58:58.987Z,17.25
2022-07-27T09:04:02.003Z,20.30
2022-07-27T09:09:04.742Z,18.08
2022-07-27T09:14:12.494Z,17.75
2022-07-27T09:19:16.705Z,20.52
2022-07-27T09:24:46.963Z,16.63
2022-07-27T09:29:42.299Z,13.35
2022-07-27T09:34:45.120Z,15.57
2022-07-27T09:39:48.504Z,16.38
2022-07-27T09:44:54.839Z,17.85
2022-07-27T09:50:17.717Z,17.60
2022-07-27T09:55:21.308Z,15.05
2022-07-27T10:00:25.606Z,14.40
2022-07-27T10:05:29.108Z,15.60
2022-07-27T10:10:31.893Z,14.80
2022-07-27T10:15:34.687Z,16.75
2022-07-27T10:20:39.679Z,16.00
2022-07-27T10:25:44.113Z,16.95
2022-07-27T10:30:53.623Z,19.13
2022-07-27T10:35:57.103Z,14.65
2022-07-27T10:41:21.937Z,14.98
2022-07-27T10:46:24.590Z,15.52
2022-07-27T10:51:36.702Z,15.63
2022-07-27T10:56:50.401Z,16.10
2022-07-27T11:02:02.094Z,16.35
2022-07-27T11:12:31.161Z,17.92
2022-07-27T11:23:48.669Z,16.83
2022-07-27T11:28:29.086Z,18.75
2022-07-27T11:33:32.478Z,17.55
2022-07-27T11:38:53.000Z,17.25
2022-07-27T11:44:01.212Z,15.65
2022-07-27T11:49:09.046Z,16.70
2022-07-27T11:54:22.453Z,16.67
2022-07-27T11:59:31.883Z,15.93
2022-07-27T12:04:40.197Z,17.17
2022-07-27T12:09:58.080Z,16.42
2022-07-27T12:15:42.793Z,17.15
2022-07-27T12:20:37.886Z,16.35
2022-07-27T12:25:41.417Z,16.73
2022-07-27T12:30:49.484Z,15.82
2022-07-27T12:35:52.302Z,20.08
2022-07-27T12:41:00.525Z,25.25
2022-07-27T12:46:14.197Z,20.38
2022-07-27T12:51:23.989Z,19.55
2022-07-27T12:56:27.408Z,19.93
2022-07-27T13:01:30.933Z,17.80
2022-07-27T13:06:33.863Z,22.38
2022-07-27T13:11:36.501Z,20.30
2022-07-27T13:16:39.334Z,23.08
2022-07-27T13:21:42.079Z,20.58
2022-07-27T13:26:44.678Z,23.45
2022-07-27T13:31:52.440Z,23.70
2022-07-27T13:36:57.735Z,20.00
2022-07-27T13:42:00.552Z,17.92
2022-07-27T13:47:03.839Z,22.88
2022-07-27T13:52:06.985Z,19.02
2022-07-27T13:57:09.665Z,18.13
2022-07-27T14:02:12.404Z,17.77
2022-07-27T14:07:15.676Z,17.95
2022-07-27T14:12:18.323Z,17.15
2022-07-27T14:17:21.092Z,17.88
2022-07-27T14:22:23.750Z,19.23
2022-07-27T14:27:26.390Z,20.60
2022-07-27T14:32:38.905Z,18.98
2022-07-27T14:37:41.637Z,18.30
2022-07-27T14:42:44.360Z,18.58
2022-07-27T14:47:47.797Z,18.80
2022-07-27T14:52:50.910Z,18.23
2022-07-27T14:57:53.969Z,18.40
2022-07-27T15:02:56.667Z,19.45
2022-07-27T15:08:00.490Z,16.77
2022-07-27T15:13:05.104Z,18.00
2022-07-27T15:18:08.108Z,17.45
2022-07-27T15:23:10.956Z,18.10
2022-07-27T15:28:13.652Z,18.00
2022-07-27T15:33:16.466Z,17.70
2022-07-27T15:38:19.344Z,16.88
2022-07-27T15:43:22.040Z,18.02
2022-07-27T15:48:26.260Z,16.92
2022-07-27T15:53:29.934Z,17.40
2022-07-27T15:58:32.665Z,16.05
2022-07-27T16:03:35.470Z,16.60
2022-07-27T16:08:39.169Z,15.93
2022-07-27T16:13:42.288Z,17.10
2022-07-27T16:18:46.845Z,19.23
2022-07-27T16:23:50.951Z,25.42
2022-07-27T16:28:57.101Z,17.98
2022-07-27T16:33:59.956Z,17.80
2022-07-27T16:39:02.744Z,16.83
2022-07-27T16:44:05.738Z,18.23
2022-07-27T16:49:09.148Z,15.75
2022-07-27T16:54:15.790Z,16.35
2022-07-27T16:59:20.846Z,19.20
2022-07-27T17:04:24.845Z,13.05
2022-07-27T17:09:28.710Z,18.83
2022-07-27T17:14:31.455Z,17.38
2022-07-27T17:19:35.294Z,20.52
2022-07-27T17:24:38.412Z,13.98
2022-07-27T17:29:41.457Z,20.98
2022-07-27T17:34:47.678Z,19.35
2022-07-27T17:39:50.671Z,14.50
2022-07-27T17:44:53.760Z,25.23
2022-07-27T17:49:58.080Z,19.98
2022-07-27T17:55:01.860Z,16.60
2022-07-27T18:00:07.788Z,18.80
2022-07-27T18:05:12.886Z,21.88
2022-07-27T18:10:16.852Z,16.30
2022-07-27T18:15:38.264Z,17.23
2022-07-27T18:20:41.696Z,17.60
2022-07-27T18:25:45.254Z,15.27
2022-07-27T18:30:50.128Z,30.58
2022-07-27T18:35:54.055Z,16.00
2022-07-27T18:40:59.954Z,18.27
2022-07-27T18:46:03.177Z,17.02
2022-07-27T18:51:05.910Z,16.88
2022-07-27T18:56:08.576Z,15.77
2022-07-27T19:01:11.649Z,21.48
2022-07-27T19:06:17.856Z,15.35
2022-07-27T19:11:21.780Z,14.65
2022-07-27T19:16:25.579Z,15.00
2022-07-27T19:21:28.469Z,17.88
2022-07-27T19:26:31.228Z,17.73
2022-07-27T19:31:34.404Z,17.42
2022-07-27T19:36:37.449Z,13.10
2022-07-27T19:41:40.356Z,15.38
2022-07-27T19:46:43.489Z,14.10
2022-07-27T19:51:46.274Z,19.15
2022-07-27T19:56:49.016Z,20.38
2022-07-27T20:01:51.791Z,24.00
2022-07-27T20:06:54.536Z,19.30
2022-07-27T20:12:00.461Z,18.50
2022-07-27T20:17:04.296Z,15.25
2022-07-27T20:22:07.097Z,18.75
2022-07-27T20:27:10.307Z,14.40
2022-07-27T20:32:14.777Z,21.67
2022-07-27T20:37:17.490Z,13.98
2022-07-27T20:42:20.183Z,14.25
2022-07-27T20:47:22.893Z,16.67
2022-07-27T20:52:26.116Z,20.55
2022-07-27T20:57:29.063Z,17.50
2022-07-27T21:02:32.305Z,16.17
2022-07-27T21:07:35.061Z,14.63
2022-07-27T21:12:37.830Z,13.95
2022-07-27T21:17:40.931Z,18.98
2022-07-27T21:22:43.688Z,12.00
2022-07-27T21:27:46.489Z,15.68
2022-07-27T21:32:50.926Z,12.15
2022-07-27T21:37:53.566Z,12.40
2022-07-27T21:42:56.312Z,12.43
2022-07-27T21:47:58.966Z,11.98
2022-07-27T21:53:01.582Z,15.43
2022-07-27T21:58:04.870Z,10.85
2022-07-27T22:03:08.699Z,14.20
2022-07-27T22:08:11.441Z,12.70
2022-07-27T22:13:14.121Z,12.15
2022-07-27T22:18:17.786Z,15.05
2022-07-27T22:23:20.623Z,12.60
2022-07-27T22:28:25.457Z,12.00
2022-07-27T22:33:29.235Z,10.23
2022-07-27T22:38:31.921Z,9.48
2022-07-27T22:43:34.698Z,13.07
2022-07-27T22:48:37.410Z,11.45
2022-07-27T22:53:40.155Z,13.10
2022-07-27T22:58:42.873Z,20.10
2022-07-27T23:03:45.470Z,13.07
2022-07-27T23:08:48.202Z,15.60
2022-07-27T23:13:50.917Z,14.10
2022-07-27T23:18:53.614Z,14.77
2022-07-27T23:23:56.745Z,14.45
2022-07-27T23:29:01.858Z,13.35
2022-07-27T23:34:04.519Z,16.00
2022-07-27T23:39:07.322Z,14.77
2022-07-27T23:44:10.456Z,11.73
2022-07-27T23:49:13.667Z,12.48
2022-07-27T23:54:16.595Z,11.90
2022-07-27T23:59:19.802Z,17.05
